createdAt,value
2018-06-28T00:01:35.881Z,3.03
2018-06-28T00:04:03.236Z,2.47
2018-06-28T00:06:30.582Z,2.27
2018-06-28T00:08:57.842Z,2.20
2018-06-28T00:11:25.113Z,1.97
2018-06-28T00:13:52.363Z,2.53
2018-06-28T00:16:19.648Z,2.33
2018-06-28T00:18:46.899Z,2.10
2018-06-28T00:21:14.200Z,2.33
2018-06-28T00:23:41.457Z,2.27
2018-06-28T00:26:08.705Z,2.27
2018-06-28T00:28:35.977Z,2.53
2018-06-28T00:31:03.273Z,2.67
2018-06-28T00:33:30.494Z,2.70
2018-06-28T00:35:57.746Z,2.33
2018-06-28T00:38:24.987Z,2.60
2018-06-28T00:40:53.197Z,2.30
2018-06-28T00:43:20.426Z,2.20
2018-06-28T00:45:47.693Z,2.10
2018-06-28T00:48:14.939Z,2.17
2018-06-28T00:50:42.202Z,1.80
2018-06-28T00:53:09.481Z,2.27
2018-06-28T00:55:36.754Z,2.70
2018-06-28T00:58:04.012Z,2.40
2018-06-28T01:00:31.248Z,2.80
2018-06-28T01:02:58.540Z,3.67
2018-06-28T01:05:25.777Z,4.43
2018-06-28T01:07:53.033Z,4.10
2018-06-28T01:10:20.317Z,3.93
2018-06-28T01:12:47.545Z,3.50
2018-06-28T01:15:14.872Z,4.20
2018-06-28T01:17:42.102Z,4.03
2018-06-28T01:20:09.368Z,4.40
2018-06-28T01:22:36.600Z,3.73
2018-06-28T01:25:04.229Z,3.50
2018-06-28T01:27:31.481Z,3.40
2018-06-28T01:29:58.768Z,3.30
2018-06-28T01:32:26.060Z,3.10
2018-06-28T01:34:53.363Z,2.80
2018-06-28T01:37:20.610Z,3.20
2018-06-28T01:39:47.866Z,3.80
2018-06-28T01:42:20.786Z,3.87
2018-06-28T01:44:48.027Z,3.03
2018-06-28T01:47:15.318Z,3.60
2018-06-28T01:49:42.621Z,2.80
2018-06-28T01:52:09.861Z,2.73
2018-06-28T01:54:37.118Z,3.07
2018-06-28T01:57:04.378Z,3.50
2018-06-28T01:59:31.618Z,3.60
2018-06-28T02:01:58.889Z,2.50
2018-06-28T02:04:26.144Z,2.80
2018-06-28T02:06:53.408Z,2.80
2018-06-28T02:09:20.641Z,2.57
2018-06-28T02:11:47.879Z,2.50
2018-06-28T02:14:15.157Z,2.90
2018-06-28T02:16:42.607Z,2.50
2018-06-28T02:19:09.845Z,2.77
2018-06-28T02:21:37.113Z,2.30
2018-06-28T02:24:04.574Z,2.30
2018-06-28T02:26:31.814Z,2.67
2018-06-28T02:28:59.083Z,1.97
2018-06-28T02:31:26.312Z,2.07
2018-06-28T02:33:53.566Z,2.30
2018-06-28T02:36:20.914Z,2.40
2018-06-28T02:38:48.196Z,2.40
2018-06-28T02:41:15.456Z,2.13
2018-06-28T02:43:42.946Z,2.03
2018-06-28T02:46:10.226Z,2.40
2018-06-28T02:48:37.476Z,2.33
2018-06-28T02:51:04.706Z,2.37
2018-06-28T02:53:31.981Z,2.83
2018-06-28T02:55:59.210Z,2.33
2018-06-28T02:58:26.465Z,2.40
2018-06-28T03:00:53.866Z,2.40
2018-06-28T03:03:21.106Z,2.37
2018-06-28T03:05:48.357Z,2.37
2018-06-28T03:08:15.673Z,2.30
2018-06-28T03:10:42.942Z,2.60
2018-06-28T03:13:10.199Z,3.40
2018-06-28T03:15:37.448Z,2.60
2018-06-28T03:18:04.697Z,2.20
2018-06-28T03:20:31.933Z,1.80
2018-06-28T03:22:59.305Z,2.00
2018-06-28T03:25:26.566Z,2.20
2018-06-28T03:27:53.822Z,1.80
2018-06-28T03:30:21.055Z,2.20
2018-06-28T03:32:48.383Z,2.40
2018-06-28T03:35:16.191Z,2.07
2018-06-28T03:37:43.553Z,2.03
2018-06-28T03:40:10.987Z,2.53
2018-06-28T03:42:38.268Z,2.40
2018-06-28T03:45:05.911Z,2.80
2018-06-28T03:47:33.173Z,2.30
2018-06-28T03:50:00.589Z,2.10
2018-06-28T03:52:27.841Z,2.20
2018-06-28T03:54:55.109Z,2.53
2018-06-28T03:57:22.460Z,2.23
2018-06-28T03:59:49.878Z,2.43
2018-06-28T04:02:17.101Z,2.57
2018-06-28T04:04:44.430Z,1.90
2018-06-28T04:07:11.716Z,2.20
2018-06-28T04:09:38.980Z,2.20
2018-06-28T04:12:06.214Z,2.10
2018-06-28T04:14:33.501Z,2.03
2018-06-28T04:17:00.774Z,2.47
2018-06-28T04:19:28.005Z,2.10
2018-06-28T04:21:55.257Z,1.83
2018-06-28T04:24:22.493Z,2.50
2018-06-28T04:26:49.756Z,2.03
2018-06-28T04:29:17.034Z,2.00
2018-06-28T04:31:45.239Z,1.80
2018-06-28T04:34:12.468Z,2.03
2018-06-28T04:36:39.765Z,3.00
2018-06-28T04:39:07.557Z,2.30
2018-06-28T04:41:34.799Z,1.97
2018-06-28T04:44:02.060Z,1.80
2018-06-28T04:46:29.381Z,2.00
2018-06-28T04:48:56.617Z,2.27
2018-06-28T04:51:23.885Z,2.13
2018-06-28T04:53:51.162Z,2.20
2018-06-28T04:56:18.430Z,2.43
2018-06-28T04:58:45.682Z,1.93
2018-06-28T05:01:13.014Z,2.83
2018-06-28T05:03:40.465Z,2.60
2018-06-28T05:06:07.719Z,2.90
2018-06-28T05:08:34.948Z,2.60
2018-06-28T05:11:02.217Z,3.10
2018-06-28T05:13:29.454Z,2.93
2018-06-28T05:15:56.695Z,2.73
2018-06-28T05:18:24.022Z,2.80
2018-06-28T05:20:51.409Z,3.00
2018-06-28T05:23:18.678Z,3.47
2018-06-28T05:25:46.126Z,3.80
2018-06-28T05:28:13.399Z,3.17
2018-06-28T05:30:40.649Z,3.10
2018-06-28T05:33:07.950Z,3.60
2018-06-28T05:35:35.262Z,3.23
2018-06-28T05:38:02.535Z,2.53
2018-06-28T05:40:29.774Z,3.57
2018-06-28T05:42:57.014Z,3.57
2018-06-28T05:45:24.872Z,4.07
2018-06-28T05:47:52.128Z,4.27
2018-06-28T05:50:19.532Z,3.90
2018-06-28T05:52:46.819Z,3.67
2018-06-28T05:55:14.075Z,4.07
2018-06-28T05:57:41.364Z,3.80
2018-06-28T06:00:08.604Z,4.10
2018-06-28T06:02:35.857Z,5.20
2018-06-28T06:05:03.122Z,5.20
2018-06-28T06:07:30.457Z,5.17
2018-06-28T06:09:58.278Z,5.10
2018-06-28T06:12:25.523Z,4.63
2018-06-28T06:14:52.854Z,4.77
2018-06-28T06:17:20.115Z,4.43
2018-06-28T06:19:47.456Z,5.87
2018-06-28T06:22:14.708Z,5.10
2018-06-28T06:24:42.066Z,5.87
2018-06-28T06:27:09.331Z,5.10
2018-06-28T06:29:36.579Z,5.27
2018-06-28T06:32:03.825Z,5.20
2018-06-28T06:34:31.094Z,5.70
2018-06-28T06:36:58.371Z,4.73
2018-06-28T06:39:25.630Z,5.47
2018-06-28T06:41:52.858Z,5.30
2018-06-28T06:44:20.113Z,5.17
2018-06-28T06:46:47.452Z,5.53
2018-06-28T06:49:14.688Z,5.53
2018-06-28T06:51:42.003Z,5.23
2018-06-28T06:54:09.259Z,5.00
2018-06-28T06:56:36.557Z,5.30
2018-06-28T06:59:03.971Z,5.50
2018-06-28T07:01:31.249Z,5.80
2018-06-28T07:03:58.510Z,5.80
2018-06-28T07:06:25.911Z,5.70
2018-06-28T07:08:53.166Z,5.63
2018-06-28T07:11:20.434Z,5.00
2018-06-28T07:13:47.685Z,5.83
2018-06-28T07:16:15.019Z,5.30
2018-06-28T07:18:42.360Z,6.00
2018-06-28T07:21:09.611Z,5.07
2018-06-28T07:23:36.910Z,5.50
2018-06-28T07:26:04.171Z,5.23
2018-06-28T07:28:31.548Z,5.13
2018-06-28T07:30:58.946Z,6.07
2018-06-28T07:33:26.230Z,5.80
2018-06-28T07:35:53.495Z,6.20
2018-06-28T07:38:20.734Z,6.30
2018-06-28T07:40:47.990Z,6.90
2018-06-28T07:43:15.258Z,6.50
2018-06-28T07:45:42.565Z,6.60
2018-06-28T07:48:09.825Z,6.10
2018-06-28T07:50:37.209Z,7.00
2018-06-28T07:53:04.515Z,7.23
2018-06-28T07:55:32.541Z,7.20
2018-06-28T07:57:59.849Z,6.50
2018-06-28T08:00:27.227Z,6.50
2018-06-28T08:02:54.505Z,7.20
2018-06-28T08:05:21.754Z,7.67
2018-06-28T08:07:49.018Z,7.03
2018-06-28T08:10:16.243Z,7.53
2018-06-28T08:12:43.524Z,6.60
2018-06-28T08:15:10.955Z,7.70
2018-06-28T08:17:38.238Z,7.47
2018-06-28T08:20:06.030Z,6.40
2018-06-28T08:22:33.434Z,7.13
2018-06-28T08:25:00.720Z,7.27
2018-06-28T08:27:27.970Z,7.00
2018-06-28T08:29:55.266Z,8.13
2018-06-28T08:32:22.537Z,8.90
2018-06-28T08:34:49.811Z,7.20
2018-06-28T08:37:17.145Z,7.33
2018-06-28T08:39:44.464Z,7.10
2018-06-28T08:42:11.735Z,7.37
2018-06-28T08:44:38.985Z,6.93
2018-06-28T08:47:06.302Z,6.90
2018-06-28T08:49:33.614Z,7.27
2018-06-28T08:52:00.862Z,7.37
2018-06-28T08:54:28.191Z,7.60
2018-06-28T08:56:55.458Z,6.80
2018-06-28T08:59:22.737Z,8.33
2018-06-28T09:01:50.222Z,8.10
2018-06-28T09:04:17.501Z,7.40
2018-06-28T09:06:44.812Z,7.43
2018-06-28T09:09:12.891Z,7.83
2018-06-28T09:11:40.553Z,8.60
2018-06-28T09:14:07.828Z,8.17
2018-06-28T09:16:35.394Z,8.30
2018-06-28T09:19:02.710Z,8.60
2018-06-28T09:21:30.028Z,9.13
2018-06-28T09:23:57.261Z,8.73
2018-06-28T09:26:24.604Z,10.03
2018-06-28T09:28:51.873Z,9.73
2018-06-28T09:31:19.735Z,8.70
2018-06-28T09:33:46.991Z,9.97
2018-06-28T09:36:14.305Z,9.77
2018-06-28T09:38:41.623Z,10.40
2018-06-28T09:41:08.936Z,9.27
2018-06-28T09:43:36.211Z,9.93
2018-06-28T09:46:03.483Z,10.33
2018-06-28T09:48:30.740Z,10.80
2018-06-28T09:50:58.135Z,9.83
2018-06-28T09:53:25.423Z,8.50
2018-06-28T09:55:52.678Z,8.60
2018-06-28T09:58:19.961Z,10.00
2018-06-28T10:00:47.213Z,9.47
2018-06-28T10:03:15.265Z,9.90
2018-06-28T10:05:42.601Z,10.27
2018-06-28T10:08:10.708Z,10.20
2018-06-28T10:10:37.983Z,10.20
2018-06-28T10:13:05.551Z,9.93
2018-06-28T10:15:32.817Z,9.23
2018-06-28T10:18:00.156Z,9.40
2018-06-28T10:20:27.595Z,9.67
2018-06-28T10:22:54.921Z,10.90
2018-06-28T10:25:22.374Z,10.43
2018-06-28T10:27:49.658Z,10.03
2018-06-28T10:30:16.902Z,10.77
2018-06-28T10:32:44.204Z,10.20
2018-06-28T10:35:11.842Z,10.70
2018-06-28T10:37:39.120Z,10.20
2018-06-28T10:40:06.358Z,10.03
2018-06-28T10:42:33.625Z,10.20
2018-06-28T10:45:00.883Z,9.70
2018-06-28T10:47:28.215Z,11.00
2018-06-28T10:49:55.750Z,10.90
2018-06-28T10:52:23.005Z,9.83
2018-06-28T10:54:50.261Z,11.00
2018-06-28T10:57:17.503Z,10.50
2018-06-28T10:59:44.790Z,10.33
2018-06-28T11:02:12.058Z,9.10
2018-06-28T11:04:39.305Z,8.87
2018-06-28T11:07:06.550Z,8.80
2018-06-28T11:09:33.842Z,10.00
2018-06-28T11:12:01.122Z,10.10
2018-06-28T11:14:28.378Z,9.30
2018-06-28T11:16:55.667Z,10.60
2018-06-28T11:19:22.943Z,10.17
2018-06-28T11:21:50.774Z,9.37
2018-06-28T11:24:18.096Z,10.67
2018-06-28T11:26:45.436Z,12.70
2018-06-28T11:29:13.042Z,12.20
2018-06-28T11:31:40.315Z,12.17
2018-06-28T11:34:07.599Z,10.53
2018-06-28T11:36:35.035Z,10.03
2018-06-28T11:39:02.312Z,10.03
2018-06-28T11:41:29.652Z,8.87
2018-06-28T11:43:56.910Z,9.90
2018-06-28T11:46:24.183Z,9.20
2018-06-28T11:48:51.436Z,10.07
2018-06-28T11:51:18.963Z,10.20
2018-06-28T11:53:46.280Z,10.53
2018-06-28T11:56:13.566Z,10.07
2018-06-28T11:58:40.825Z,11.93
2018-06-28T12:01:08.418Z,11.40
2018-06-28T12:03:36.121Z,10.97
2018-06-28T12:06:03.401Z,11.90
2018-06-28T12:08:30.738Z,11.83
2018-06-28T12:10:58.051Z,10.67
2018-06-28T12:13:25.349Z,11.17
2018-06-28T12:15:52.614Z,12.47
2018-06-28T12:18:19.875Z,11.90
2018-06-28T12:20:47.738Z,12.00
2018-06-28T12:23:15.005Z,11.47
2018-06-28T12:25:42.314Z,12.20
2018-06-28T12:28:09.585Z,12.53
2018-06-28T12:30:36.989Z,11.00
2018-06-28T12:33:04.603Z,13.10
2018-06-28T12:35:31.882Z,12.73
2018-06-28T12:37:59.565Z,12.30
2018-06-28T12:40:26.903Z,12.47
2018-06-28T12:42:54.171Z,12.53
2018-06-28T12:45:21.433Z,12.83
2018-06-28T12:47:55.156Z,11.80
2018-06-28T12:50:22.514Z,12.00
2018-06-28T12:53:05.437Z,11.40
2018-06-28T12:56:38.437Z,11.63
2018-06-28T12:59:07.074Z,12.47
2018-06-28T13:01:34.554Z,10.97
2018-06-28T13:04:01.864Z,11.27
2018-06-28T13:06:29.251Z,12.60
2018-06-28T13:08:56.994Z,11.87
2018-06-28T13:11:24.685Z,10.90
2018-06-28T13:13:51.974Z,10.30
2018-06-28T13:16:20.049Z,11.60
2018-06-28T13:18:47.977Z,13.27
2018-06-28T13:21:15.357Z,12.20
2018-06-28T13:23:42.710Z,12.20
2018-06-28T13:26:11.052Z,13.60
2018-06-28T13:28:38.371Z,13.90
2018-06-28T13:31:05.777Z,13.70
2018-06-28T13:33:33.053Z,12.53
2018-06-28T13:36:00.336Z,14.97
2018-06-28T13:38:28.715Z,14.10
2018-06-28T13:40:56.127Z,14.37
2018-06-28T13:43:23.485Z,14.00
2018-06-28T13:45:50.766Z,14.00
2018-06-28T13:48:18.186Z,14.30
2018-06-28T13:50:45.530Z,13.97
2018-06-28T13:53:12.812Z,12.70
2018-06-28T13:55:40.216Z,12.30
2018-06-28T13:58:07.490Z,14.03
2018-06-28T14:00:34.746Z,12.30
2018-06-28T14:03:02.045Z,13.67
2018-06-28T14:05:29.499Z,13.30
2018-06-28T14:07:56.774Z,12.70
2018-06-28T14:10:24.062Z,13.20
2018-06-28T14:12:51.370Z,13.60
2018-06-28T14:15:18.689Z,13.70
2018-06-28T14:17:45.970Z,12.97
2018-06-28T14:20:13.282Z,13.47
2018-06-28T14:22:40.566Z,13.60
2018-06-28T14:25:07.829Z,14.13
2018-06-28T14:27:35.117Z,13.00
2018-06-28T14:30:02.399Z,13.37
2018-06-28T14:32:29.676Z,14.20
2018-06-28T14:34:56.944Z,12.60
2018-06-28T14:37:24.400Z,12.93
2018-06-28T14:39:51.710Z,13.03
2018-06-28T14:42:18.999Z,10.50
2018-06-28T14:44:46.535Z,13.10
2018-06-28T14:47:14.051Z,11.50
2018-06-28T14:49:41.615Z,11.70
2018-06-28T14:52:08.881Z,10.60
2018-06-28T14:54:36.143Z,11.40
2018-06-28T14:57:03.497Z,10.47
2018-06-28T14:59:30.865Z,11.03
2018-06-28T15:01:58.209Z,10.87
2018-06-28T15:04:25.476Z,11.00
2018-06-28T15:06:53.006Z,10.40
2018-06-28T15:09:20.299Z,7.10
2018-06-28T15:11:47.652Z,10.00
2018-06-28T15:14:14.915Z,7.93
2018-06-28T15:16:42.160Z,7.40
2018-06-28T15:19:09.421Z,7.77
2018-06-28T15:21:36.758Z,6.83
2018-06-28T15:24:04.231Z,7.03
2018-06-28T15:26:31.486Z,7.13
2018-06-28T15:28:59.724Z,7.10
2018-06-28T15:31:26.989Z,7.83
2018-06-28T15:33:54.253Z,6.47
2018-06-28T15:36:22.409Z,7.37
2018-06-28T15:38:49.731Z,7.03
2018-06-28T15:41:17.015Z,6.40
2018-06-28T15:43:44.341Z,6.60
2018-06-28T15:46:11.616Z,7.70
2018-06-28T15:48:39.072Z,7.17
2018-06-28T15:51:06.359Z,7.30
2018-06-28T15:53:33.790Z,6.10
2018-06-28T15:56:01.120Z,7.13
2018-06-28T15:58:28.497Z,6.60
2018-06-28T16:00:55.784Z,6.83
2018-06-28T16:03:23.220Z,6.20
2018-06-28T16:05:50.884Z,6.50
2018-06-28T16:08:18.142Z,6.53
2018-06-28T16:10:45.441Z,6.50
2018-06-28T16:13:12.861Z,6.53
2018-06-28T16:15:40.316Z,6.13
2018-06-28T16:18:07.549Z,6.10
2018-06-28T16:20:34.828Z,5.50
2018-06-28T16:23:02.312Z,6.83
2018-06-28T16:25:29.765Z,6.90
2018-06-28T16:27:57.195Z,7.07
2018-06-28T16:30:24.455Z,7.20
2018-06-28T16:32:52.835Z,6.97
2018-06-28T16:35:20.379Z,6.87
2018-06-28T16:37:48.859Z,6.30
2018-06-28T16:40:16.175Z,7.07
2018-06-28T16:42:43.490Z,6.40
2018-06-28T16:45:10.859Z,6.57
2018-06-28T16:47:38.280Z,6.57
2018-06-28T16:50:06.317Z,6.13
2018-06-28T16:52:33.800Z,6.80
2018-06-28T16:55:01.311Z,6.70
2018-06-28T16:57:28.591Z,6.00
2018-06-28T16:59:55.934Z,6.40
2018-06-28T17:02:23.218Z,6.00
2018-06-28T17:04:50.479Z,5.97
2018-06-28T17:07:17.831Z,6.53
2018-06-28T17:09:45.111Z,6.00
2018-06-28T17:12:12.388Z,6.37
2018-06-28T17:14:39.805Z,6.63
2018-06-28T17:17:07.116Z,5.83
2018-06-28T17:19:34.640Z,6.23
2018-06-28T17:22:01.922Z,5.80
2018-06-28T17:24:29.226Z,6.70
2018-06-28T17:26:56.563Z,6.73
2018-06-28T17:29:24.093Z,6.37
2018-06-28T17:31:51.623Z,6.40
2018-06-28T17:34:19.077Z,6.20
2018-06-28T17:36:46.396Z,7.27
2018-06-28T17:39:13.663Z,6.53
2018-06-28T17:41:41.010Z,6.70
2018-06-28T17:44:08.281Z,6.43
2018-06-28T17:46:35.699Z,6.60
2018-06-28T17:49:02.968Z,6.73
2018-06-28T17:51:30.237Z,6.70
2018-06-28T17:53:57.520Z,6.07
2018-06-28T17:56:24.844Z,6.97
2018-06-28T17:58:52.371Z,6.50
2018-06-28T18:01:19.827Z,7.03
2018-06-28T18:03:47.183Z,7.30
2018-06-28T18:06:14.515Z,7.67
2018-06-28T18:08:41.854Z,7.50
2018-06-28T18:11:09.459Z,7.00
2018-06-28T18:13:36.949Z,7.07
2018-06-28T18:16:04.438Z,6.83
2018-06-28T18:18:31.717Z,6.60
2018-06-28T18:20:59.051Z,6.87
2018-06-28T18:23:26.364Z,6.83
2018-06-28T18:25:53.667Z,6.60
2018-06-28T18:28:21.150Z,7.13
2018-06-28T18:30:48.431Z,6.53
2018-06-28T18:33:15.797Z,7.20
2018-06-28T18:35:43.134Z,6.67
2018-06-28T18:38:10.605Z,6.30
2018-06-28T18:40:38.933Z,6.77
2018-06-28T18:43:06.357Z,6.57
2018-06-28T18:45:33.685Z,6.43
2018-06-28T18:48:01.007Z,6.87
2018-06-28T18:50:30.326Z,6.53
2018-06-28T18:52:57.847Z,6.67
2018-06-28T18:55:25.218Z,6.70
2018-06-28T18:57:52.654Z,6.80
2018-06-28T19:00:20.157Z,6.03
2018-06-28T19:02:47.679Z,6.90
2018-06-28T19:05:15.114Z,6.77
2018-06-28T19:07:42.544Z,7.00
2018-06-28T19:10:15.485Z,7.07
2018-06-28T19:12:43.565Z,7.00
2018-06-28T19:15:16.444Z,6.60
2018-06-28T19:17:44.613Z,6.83
2018-06-28T19:20:12.154Z,6.57
2018-06-28T19:22:45.082Z,6.40
2018-06-28T19:25:12.593Z,5.63
2018-06-28T19:27:40.216Z,6.60
2018-06-28T19:30:13.068Z,6.27
2018-06-28T19:32:40.824Z,7.47
2018-06-28T19:35:09.218Z,7.50
2018-06-28T19:37:42.159Z,7.70
2018-06-28T19:40:14.939Z,7.47
2018-06-28T19:42:47.884Z,8.37
2018-06-28T19:45:15.270Z,8.23
2018-06-28T19:47:42.847Z,8.63
2018-06-28T19:50:15.588Z,8.07
2018-06-28T19:52:48.534Z,8.40
2018-06-28T19:55:15.945Z,8.60
2018-06-28T19:57:43.319Z,10.33
2018-06-28T20:00:15.119Z,10.00
2018-06-28T20:02:47.961Z,8.73
2018-06-28T20:05:15.301Z,9.73
2018-06-28T20:07:43.825Z,10.00
2018-06-28T20:10:11.217Z,9.33
2018-06-28T20:12:44.023Z,8.33
2018-06-28T20:15:16.920Z,8.93
2018-06-28T20:17:55.528Z,9.53
2018-06-28T20:20:26.024Z,8.73
2018-06-28T20:22:53.476Z,10.57
2018-06-28T20:25:20.814Z,9.67
2018-06-28T20:27:53.581Z,10.33
2018-06-28T20:30:26.498Z,9.00
2018-06-28T20:32:59.391Z,9.63
2018-06-28T20:35:26.780Z,10.13
2018-06-28T20:37:54.246Z,10.20
2018-06-28T20:40:21.523Z,10.57
2018-06-28T20:42:48.839Z,10.27
2018-06-28T20:45:16.123Z,10.60
2018-06-28T20:47:43.421Z,10.77
2018-06-28T20:50:10.763Z,10.00
2018-06-28T20:52:38.214Z,10.27
2018-06-28T20:55:05.533Z,10.33
2018-06-28T20:57:32.772Z,11.30
2018-06-28T21:00:00.067Z,10.73
2018-06-28T21:02:27.383Z,11.80
2018-06-28T21:04:54.679Z,10.87
2018-06-28T21:07:21.967Z,11.50
2018-06-28T21:09:49.262Z,11.83
2018-06-28T21:12:16.551Z,11.20
2018-06-28T21:14:44.125Z,11.17
2018-06-28T21:17:11.455Z,12.53
2018-06-28T21:19:38.774Z,11.83
2018-06-28T21:22:06.062Z,12.13
2018-06-28T21:24:33.341Z,12.10
2018-06-28T21:27:00.651Z,12.20
2018-06-28T21:29:27.998Z,11.57
2018-06-28T21:31:55.253Z,11.67
2018-06-28T21:34:23.489Z,11.97
2018-06-28T21:36:50.766Z,12.20
2018-06-28T21:39:18.064Z,12.47
2018-06-28T21:41:45.353Z,11.47
2018-06-28T21:44:12.628Z,11.77
2018-06-28T21:46:39.869Z,12.33
2018-06-28T21:49:07.135Z,11.10
2018-06-28T21:51:34.478Z,13.23
2018-06-28T21:54:01.744Z,13.10
2018-06-28T21:56:28.998Z,12.33
2018-06-28T21:58:56.265Z,13.10
2018-06-28T22:01:23.523Z,12.50
2018-06-28T22:03:50.774Z,12.50
2018-06-28T22:06:18.036Z,12.60
2018-06-28T22:08:45.337Z,12.90
2018-06-28T22:11:12.678Z,13.33
2018-06-28T22:13:40.031Z,14.20
2018-06-28T22:16:07.331Z,12.93
2018-06-28T22:18:34.607Z,14.93
2018-06-28T22:21:01.874Z,14.80
2018-06-28T22:23:29.193Z,15.03
2018-06-28T22:25:56.495Z,15.43
2018-06-28T22:28:23.902Z,15.47
2018-06-28T22:30:51.195Z,16.13
2018-06-28T22:33:18.445Z,15.57
2018-06-28T22:35:45.690Z,14.83
2018-06-28T22:38:12.995Z,15.53
2018-06-28T22:40:40.249Z,16.20
2018-06-28T22:43:07.523Z,15.63
2018-06-28T22:45:35.770Z,14.37
2018-06-28T22:48:03.102Z,15.90
2018-06-28T22:50:30.837Z,15.23
2018-06-28T22:52:58.302Z,16.10
2018-06-28T22:55:25.550Z,15.53
2018-06-28T22:57:52.894Z,16.63
2018-06-28T23:00:20.967Z,15.63
2018-06-28T23:02:48.234Z,16.00
2018-06-28T23:05:15.520Z,17.20
2018-06-28T23:07:42.797Z,17.03
2018-06-28T23:10:10.048Z,15.60
2018-06-28T23:12:37.301Z,16.50
2018-06-28T23:15:04.755Z,17.67
2018-06-28T23:17:32.044Z,18.47
2018-06-28T23:19:59.299Z,17.17
2018-06-28T23:22:32.401Z,18.63
2018-06-28T23:24:59.663Z,18.00
2018-06-28T23:27:26.905Z,17.73
2018-06-28T23:29:54.150Z,17.33
2018-06-28T23:32:21.410Z,18.90
2018-06-28T23:34:48.658Z,17.30
2018-06-28T23:37:15.923Z,17.50
2018-06-28T23:39:43.186Z,17.53
2018-06-28T23:42:10.629Z,18.37
2018-06-28T23:44:37.936Z,17.03
2018-06-28T23:47:05.229Z,17.97
2018-06-28T23:49:32.497Z,16.63
2018-06-28T23:51:59.765Z,16.17
2018-06-28T23:54:27.032Z,16.20
2018-06-28T23:56:54.365Z,17.03
2018-06-28T23:59:21.621Z,18.27
